createdAt,value
2023-04-14T00:02:27.115Z,36.60
2023-04-14T00:04:55.306Z,35.97
2023-04-14T00:07:23.303Z,35.79
2023-04-14T00:09:51.084Z,35.39
2023-04-14T00:12:19.065Z,36.07
2023-04-14T00:14:47.113Z,35.79
2023-04-14T00:17:15.108Z,35.72
2023-04-14T00:19:44.286Z,36.18
2023-04-14T00:22:12.254Z,36.24
2023-04-14T00:24:43.531Z,35.81
2023-04-14T00:27:11.843Z,36.03
2023-04-14T00:29:39.914Z,36.39
2023-04-14T00:32:08.076Z,35.98
2023-04-14T00:34:35.949Z,35.89
2023-04-14T00:37:05.342Z,36.03
2023-04-14T00:39:33.306Z,36.09
2023-04-14T00:42:02.852Z,36.25
2023-04-14T00:44:31.183Z,36.17
2023-04-14T00:47:01.627Z,36.68
2023-04-14T00:49:29.865Z,36.43
2023-04-14T00:51:57.907Z,36.59
2023-04-14T00:54:29.428Z,36.56
2023-04-14T00:56:57.950Z,36.70
2023-04-14T00:59:25.885Z,36.64
2023-04-14T01:01:54.890Z,36.45
2023-04-14T01:04:24.820Z,36.59
2023-04-14T01:06:55.305Z,36.19
2023-04-14T01:09:24.235Z,36.16
2023-04-14T01:12:03.071Z,37.24
2023-04-14T01:14:41.689Z,37.21
2023-04-14T01:17:18.428Z,36.89
2023-04-14T01:20:03.591Z,37.36
2023-04-14T01:22:34.199Z,37.00
2023-04-14T01:25:22.144Z,37.37
2023-04-14T01:28:06.537Z,37.55
2023-04-14T01:30:48.787Z,37.82
2023-04-14T01:33:21.809Z,37.71
2023-04-14T01:35:51.627Z,37.74
2023-04-14T01:38:24.853Z,37.27
2023-04-14T01:40:58.897Z,37.73
2023-04-14T01:43:29.878Z,36.89
2023-04-14T01:46:01.818Z,37.44
2023-04-14T01:48:33.349Z,37.50
2023-04-14T01:51:03.506Z,37.38
2023-04-14T01:53:36.768Z,37.33
2023-04-14T01:56:08.976Z,37.18
2023-04-14T01:58:38.331Z,37.29
2023-04-14T02:01:07.800Z,37.78
2023-04-14T02:03:38.960Z,37.80
2023-04-14T02:06:08.542Z,37.70
2023-04-14T02:08:39.830Z,38.08
2023-04-14T02:11:09.786Z,37.99
2023-04-14T02:13:40.456Z,38.01
2023-04-14T02:16:10.714Z,37.65
2023-04-14T02:18:42.449Z,37.92
2023-04-14T02:21:11.697Z,37.49
2023-04-14T02:23:39.578Z,37.73
2023-04-14T02:26:14.058Z,38.42
2023-04-14T02:28:47.203Z,38.26
2023-04-14T02:31:20.276Z,37.76
2023-04-14T02:33:54.543Z,38.06
2023-04-14T02:36:28.055Z,37.81
2023-04-14T02:39:01.606Z,38.39
2023-04-14T02:41:31.579Z,38.26
2023-04-14T02:44:06.887Z,38.28
2023-04-14T02:46:40.534Z,38.09
2023-04-14T02:49:14.572Z,38.13
2023-04-14T02:51:46.280Z,38.46
2023-04-14T02:54:16.502Z,38.21
2023-04-14T02:56:48.706Z,37.87
2023-04-14T02:59:19.438Z,37.98
2023-04-14T03:01:59.810Z,38.00
2023-04-14T03:04:30.640Z,38.43
2023-04-14T03:06:59.908Z,38.01
2023-04-14T03:09:28.456Z,38.38
2023-04-14T03:11:56.962Z,38.31
2023-04-14T03:14:26.245Z,38.42
2023-04-14T03:16:55.463Z,37.72
2023-04-14T03:19:26.416Z,37.86
2023-04-14T03:22:00.108Z,38.51
2023-04-14T03:24:31.245Z,37.96
2023-04-14T03:27:04.067Z,38.15
2023-04-14T03:29:35.704Z,38.00
2023-04-14T03:32:06.896Z,38.27
2023-04-14T03:34:42.135Z,38.48
2023-04-14T03:37:12.899Z,38.42
2023-04-14T03:40:05.205Z,38.90
2023-04-14T03:42:35.773Z,38.26
2023-04-14T03:45:05.037Z,37.89
2023-04-14T03:47:36.167Z,38.43
2023-04-14T03:50:09.148Z,38.62
2023-04-14T03:52:43.768Z,38.33
2023-04-14T03:55:13.613Z,38.34
2023-04-14T03:57:44.930Z,38.41
2023-04-14T04:00:15.874Z,38.15
2023-04-14T04:02:47.269Z,37.95
2023-04-14T04:05:16.069Z,38.51
2023-04-14T04:07:47.295Z,38.45
2023-04-14T04:10:16.299Z,38.42
2023-04-14T04:12:45.298Z,38.23
2023-04-14T04:15:13.949Z,38.33
2023-04-14T04:17:44.317Z,38.71
2023-04-14T04:20:16.364Z,39.02
2023-04-14T04:22:50.556Z,38.83
2023-04-14T04:25:19.671Z,38.63
2023-04-14T04:27:56.572Z,38.73
2023-04-14T04:30:26.175Z,38.40
2023-04-14T04:32:54.714Z,38.86
2023-04-14T04:35:24.752Z,39.08
2023-04-14T04:37:54.862Z,38.70
2023-04-14T04:40:22.751Z,39.05
2023-04-14T04:42:52.341Z,38.64
2023-04-14T04:45:31.107Z,39.08
2023-04-14T04:47:59.458Z,38.66
2023-04-14T04:50:27.306Z,38.84
2023-04-14T04:52:56.705Z,38.95
2023-04-14T04:55:24.545Z,39.04
2023-04-14T04:57:52.355Z,38.75
2023-04-14T05:00:22.972Z,39.10
2023-04-14T05:02:51.372Z,39.12
2023-04-14T05:05:19.333Z,39.43
2023-04-14T05:07:47.196Z,39.58
2023-04-14T05:10:16.444Z,39.51
2023-04-14T05:12:44.328Z,39.40
2023-04-14T05:15:12.740Z,39.27
2023-04-14T05:17:40.566Z,39.81
2023-04-14T05:20:09.267Z,39.40
2023-04-14T05:22:37.261Z,39.63
2023-04-14T05:25:05.560Z,39.85
2023-04-14T05:27:34.797Z,39.96
2023-04-14T05:30:02.614Z,39.64
2023-04-14T05:32:30.638Z,39.58
2023-04-14T05:34:58.801Z,39.71
2023-04-14T05:37:30.065Z,39.83
2023-04-14T05:39:57.988Z,40.18
2023-04-14T05:42:25.796Z,40.34
2023-04-14T05:44:54.961Z,40.45
2023-04-14T05:47:22.753Z,39.99
2023-04-14T05:49:50.630Z,40.54
2023-04-14T05:52:18.496Z,40.63
2023-04-14T05:54:46.342Z,40.55
2023-04-14T05:57:14.144Z,40.79
2023-04-14T05:59:43.061Z,40.47
2023-04-14T06:02:12.346Z,41.11
2023-04-14T06:04:40.376Z,40.77
2023-04-14T06:07:08.266Z,40.74
2023-04-14T06:09:36.152Z,40.78
2023-04-14T06:12:04.002Z,40.80
2023-04-14T06:14:31.853Z,41.24
2023-04-14T06:16:59.717Z,40.84
2023-04-14T06:19:28.988Z,41.32
2023-04-14T06:21:56.782Z,41.35
2023-04-14T06:24:24.615Z,40.89
2023-04-14T06:26:52.736Z,40.89
2023-04-14T06:29:20.692Z,40.93
2023-04-14T06:31:48.580Z,41.01
2023-04-14T06:34:16.467Z,40.93
2023-04-14T06:36:45.737Z,40.65
2023-04-14T06:39:13.750Z,41.17
2023-04-14T06:41:41.701Z,40.62
2023-04-14T06:44:11.102Z,40.63
2023-04-14T06:46:39.521Z,40.86
2023-04-14T06:49:08.337Z,40.30
2023-04-14T06:51:36.430Z,40.64
2023-04-14T06:54:05.822Z,39.91
2023-04-14T06:56:33.646Z,40.10
2023-04-14T06:59:01.517Z,40.24
2023-04-14T07:01:29.329Z,40.01
2023-04-14T07:03:57.273Z,39.99
2023-04-14T07:06:25.225Z,39.33
2023-04-14T07:08:54.177Z,39.75
2023-04-14T07:11:23.348Z,39.91
2023-04-14T07:13:51.181Z,40.00
2023-04-14T07:16:18.963Z,39.46
2023-04-14T07:18:46.848Z,39.52
2023-04-14T07:21:14.661Z,39.72
2023-04-14T07:23:42.577Z,39.11
2023-04-14T07:26:10.508Z,38.90
2023-04-14T07:28:39.959Z,39.02
2023-04-14T07:31:11.684Z,38.64
2023-04-14T07:33:39.798Z,39.01
2023-04-14T07:36:08.072Z,38.79
2023-04-14T07:38:36.451Z,38.93
2023-04-14T07:41:06.415Z,38.74
2023-04-14T07:43:35.554Z,38.58
2023-04-14T07:46:06.534Z,38.31
2023-04-14T07:48:35.654Z,38.92
2023-04-14T07:51:04.355Z,38.06
2023-04-14T07:53:32.460Z,38.54
2023-04-14T07:56:00.956Z,38.09
2023-04-14T07:58:29.624Z,37.75
2023-04-14T08:00:57.805Z,38.12
2023-04-14T08:03:27.274Z,37.68
2023-04-14T08:05:55.411Z,37.18
2023-04-14T08:08:23.737Z,36.43
2023-04-14T08:10:51.756Z,36.34
2023-04-14T08:13:19.602Z,36.57
2023-04-14T08:15:47.517Z,36.42
2023-04-14T08:18:15.470Z,35.98
2023-04-14T08:20:44.847Z,36.45
2023-04-14T08:23:12.832Z,35.80
2023-04-14T08:25:40.865Z,35.86
2023-04-14T08:28:08.858Z,35.41
2023-04-14T08:30:37.307Z,35.41
2023-04-14T08:33:05.296Z,35.53
2023-04-14T08:35:37.199Z,35.19
2023-04-14T08:38:10.870Z,35.51
2023-04-14T08:40:40.065Z,35.40
2023-04-14T08:43:08.082Z,34.98
2023-04-14T08:45:36.890Z,34.86
2023-04-14T08:48:05.776Z,34.94
2023-04-14T08:50:37.988Z,34.86
2023-04-14T08:53:11.191Z,35.07
2023-04-14T08:55:42.135Z,34.92
2023-04-14T08:58:11.490Z,34.67
2023-04-14T09:00:40.154Z,34.71
2023-04-14T09:03:09.282Z,34.41
2023-04-14T09:05:37.784Z,34.64
2023-04-14T09:08:05.859Z,34.06
2023-04-14T09:10:36.175Z,33.52
2023-04-14T09:13:06.487Z,33.93
2023-04-14T09:15:34.440Z,33.87
2023-04-14T09:18:02.917Z,33.51
2023-04-14T09:20:35.499Z,33.69
2023-04-14T09:23:05.155Z,33.32
2023-04-14T09:25:35.039Z,32.97
2023-04-14T09:28:03.011Z,33.04
2023-04-14T09:30:32.323Z,32.74
2023-04-14T09:33:00.909Z,33.04
2023-04-14T09:35:44.616Z,32.05
2023-04-14T09:38:12.472Z,32.27
2023-04-14T09:40:44.417Z,31.55
2023-04-14T09:43:25.196Z,31.09
2023-04-14T09:45:53.249Z,32.60
2023-04-14T09:48:21.828Z,32.22
2023-04-14T09:51:01.005Z,31.24
2023-04-14T09:53:30.151Z,32.23
2023-04-14T09:56:02.580Z,31.91
2023-04-14T09:58:32.696Z,31.47
2023-04-14T10:01:00.710Z,31.02
2023-04-14T10:03:37.480Z,30.18
2023-04-14T10:06:09.805Z,30.80
2023-04-14T10:08:42.664Z,30.85
2023-04-14T10:11:20.272Z,30.23
2023-04-14T10:13:49.752Z,30.92
2023-04-14T10:16:18.144Z,30.79
2023-04-14T10:18:46.664Z,30.94
2023-04-14T10:21:16.075Z,31.02
2023-04-14T10:23:45.201Z,31.02
2023-04-14T10:26:14.466Z,30.21
2023-04-14T10:28:45.879Z,29.09
2023-04-14T10:31:17.371Z,29.30
2023-04-14T10:33:45.451Z,29.48
2023-04-14T10:36:13.451Z,29.46
2023-04-14T10:38:43.515Z,29.39
2023-04-14T10:41:12.789Z,29.35
2023-04-14T10:43:41.586Z,29.60
2023-04-14T10:46:11.102Z,29.16
2023-04-14T10:48:41.359Z,29.53
2023-04-14T10:51:11.876Z,29.52
2023-04-14T10:53:45.850Z,29.05
2023-04-14T10:56:14.224Z,28.86
2023-04-14T10:58:42.136Z,28.37
2023-04-14T11:01:24.499Z,27.22
2023-04-14T11:03:53.145Z,28.06
2023-04-14T11:06:53.574Z,26.80
2023-04-14T11:09:33.238Z,27.07
2023-04-14T11:12:06.728Z,27.24
2023-04-14T11:14:36.538Z,27.43
2023-04-14T11:17:06.433Z,27.63
2023-04-14T11:19:34.517Z,27.83
2023-04-14T11:22:02.490Z,27.84
2023-04-14T11:24:30.395Z,27.77
2023-04-14T11:26:58.536Z,27.77
2023-04-14T11:29:26.363Z,27.41
2023-04-14T11:32:06.636Z,25.13
2023-04-14T11:34:35.039Z,26.42
2023-04-14T11:37:03.993Z,26.02
2023-04-14T11:39:32.218Z,26.22
2023-04-14T11:42:01.192Z,26.42
2023-04-14T11:44:30.309Z,26.15
2023-04-14T11:46:58.251Z,26.07
2023-04-14T11:49:37.841Z,25.37
2023-04-14T11:52:07.341Z,26.33
2023-04-14T11:54:39.320Z,25.68
2023-04-14T11:57:11.481Z,25.62
2023-04-14T11:59:43.612Z,25.42
2023-04-14T12:02:18.319Z,26.25
2023-04-14T12:04:50.474Z,26.71
2023-04-14T12:07:20.805Z,26.22
2023-04-14T12:09:50.373Z,26.18
2023-04-14T12:12:20.198Z,26.26
2023-04-14T12:14:49.557Z,26.09
2023-04-14T12:17:20.369Z,26.09
2023-04-14T12:19:50.071Z,26.09
2023-04-14T12:22:26.256Z,24.91
2023-04-14T12:24:54.264Z,25.73
2023-04-14T12:27:24.633Z,25.19
2023-04-14T12:29:53.062Z,25.47
2023-04-14T12:32:22.198Z,25.05
2023-04-14T12:34:58.640Z,24.83
2023-04-14T12:37:28.514Z,25.08
2023-04-14T12:39:59.500Z,24.95
2023-04-14T12:42:28.182Z,25.16
2023-04-14T12:44:57.816Z,24.95
2023-04-14T12:47:32.645Z,23.84
2023-04-14T12:50:03.391Z,24.74
2023-04-14T12:52:35.753Z,23.88
2023-04-14T12:55:04.782Z,24.34
2023-04-14T12:57:33.668Z,24.17
2023-04-14T13:00:02.277Z,23.94
2023-04-14T13:02:30.916Z,23.74
2023-04-14T13:04:58.965Z,24.31
2023-04-14T13:07:28.208Z,23.48
2023-04-14T13:09:56.027Z,23.35
2023-04-14T13:12:23.902Z,23.20
2023-04-14T13:14:53.424Z,23.23
2023-04-14T13:17:21.429Z,22.85
2023-04-14T13:19:49.380Z,22.16
2023-04-14T13:22:18.301Z,22.09
2023-04-14T13:24:47.592Z,22.19
2023-04-14T13:27:15.578Z,22.10
2023-04-14T13:29:43.621Z,22.29
2023-04-14T13:32:12.042Z,22.15
2023-04-14T13:34:40.966Z,22.10
2023-04-14T13:37:08.766Z,22.28
2023-04-14T13:39:36.701Z,21.87
2023-04-14T13:42:05.909Z,21.78
2023-04-14T13:44:35.251Z,21.87
2023-04-14T13:47:03.504Z,21.86
2023-04-14T13:49:31.762Z,21.56
2023-04-14T13:51:59.576Z,21.68
2023-04-14T13:54:27.519Z,21.68
2023-04-14T13:56:56.535Z,21.75
2023-04-14T13:59:25.822Z,22.11
2023-04-14T14:01:53.784Z,21.52
2023-04-14T14:04:21.964Z,21.35
2023-04-14T14:06:49.945Z,21.66
2023-04-14T14:09:17.917Z,21.17
2023-04-14T14:11:46.716Z,20.90
2023-04-14T14:14:14.935Z,20.85
2023-04-14T14:16:44.191Z,21.18
2023-04-14T14:19:15.124Z,21.51
2023-04-14T14:21:44.559Z,21.48
2023-04-14T14:24:13.155Z,21.11
2023-04-14T14:26:41.033Z,20.77
2023-04-14T14:29:09.216Z,20.56
2023-04-14T14:31:37.150Z,21.04
2023-04-14T14:34:06.535Z,20.80
2023-04-14T14:36:34.459Z,20.86
2023-04-14T14:39:04.002Z,20.49
2023-04-14T14:41:31.825Z,20.69
2023-04-14T14:44:01.223Z,20.93
2023-04-14T14:46:29.666Z,21.17
2023-04-14T14:48:57.874Z,21.04
2023-04-14T14:51:27.792Z,20.93
2023-04-14T14:54:04.230Z,20.69
2023-04-14T14:56:36.965Z,20.88
2023-04-14T14:59:05.029Z,20.62
2023-04-14T15:01:33.654Z,20.80
2023-04-14T15:04:02.021Z,20.70
2023-04-14T15:06:31.631Z,20.83
2023-04-14T15:09:00.110Z,20.98
2023-04-14T15:11:29.540Z,20.61
2023-04-14T15:13:58.478Z,20.64
2023-04-14T15:16:26.582Z,20.19
2023-04-14T15:18:54.627Z,20.05
2023-04-14T15:21:22.434Z,20.21
2023-04-14T15:23:52.019Z,20.06
2023-04-14T15:26:20.097Z,19.88
2023-04-14T15:28:48.339Z,19.57
2023-04-14T15:31:16.218Z,19.39
2023-04-14T15:33:45.673Z,19.71
2023-04-14T15:36:13.596Z,19.45
2023-04-14T15:38:42.273Z,19.48
2023-04-14T15:41:11.849Z,19.38
2023-04-14T15:43:39.727Z,19.77
2023-04-14T15:46:07.774Z,19.86
2023-04-14T15:48:35.679Z,19.82
2023-04-14T15:51:04.851Z,19.49
2023-04-14T15:53:32.982Z,19.30
2023-04-14T15:56:00.981Z,19.91
2023-04-14T15:58:30.302Z,19.51
2023-04-14T16:00:58.526Z,19.74
2023-04-14T16:03:26.602Z,19.88
2023-04-14T16:06:02.738Z,19.13
2023-04-14T16:08:30.800Z,19.82
2023-04-14T16:10:58.723Z,19.75
2023-04-14T16:13:26.717Z,20.12
2023-04-14T16:15:56.187Z,19.98
2023-04-14T16:18:24.148Z,20.31
2023-04-14T16:20:52.043Z,19.96
2023-04-14T16:23:19.964Z,20.15
2023-04-14T16:25:50.209Z,19.98
2023-04-14T16:28:18.597Z,19.87
2023-04-14T16:30:46.753Z,20.03
2023-04-14T16:33:16.192Z,20.34
2023-04-14T16:35:44.276Z,20.03
2023-04-14T16:38:12.278Z,20.25
2023-04-14T16:40:40.571Z,20.35
2023-04-14T16:43:09.611Z,20.20
2023-04-14T16:45:37.476Z,19.78
2023-04-14T16:48:05.610Z,20.11
2023-04-14T16:50:38.203Z,19.35
2023-04-14T16:53:05.978Z,20.36
2023-04-14T16:55:34.732Z,20.52
2023-04-14T16:58:03.146Z,19.97
2023-04-14T17:00:31.073Z,20.33
2023-04-14T17:02:59.181Z,20.06
2023-04-14T17:05:27.202Z,20.28
2023-04-14T17:07:56.466Z,19.85
2023-04-14T17:10:26.167Z,20.19
2023-04-14T17:12:53.982Z,20.11
2023-04-14T17:15:21.944Z,20.00
2023-04-14T17:17:50.092Z,19.99
2023-04-14T17:20:18.187Z,20.06
2023-04-14T17:22:46.936Z,19.96
2023-04-14T17:25:20.584Z,19.39
2023-04-14T17:27:49.012Z,20.24
2023-04-14T17:30:16.903Z,20.11
2023-04-14T17:32:45.579Z,20.10
2023-04-14T17:35:14.576Z,19.99
2023-04-14T17:37:42.607Z,19.99
2023-04-14T17:40:11.607Z,19.75
2023-04-14T17:42:42.177Z,19.69
2023-04-14T17:45:10.962Z,19.94
2023-04-14T17:47:39.857Z,20.13
2023-04-14T17:50:09.264Z,19.77
2023-04-14T17:52:37.356Z,19.86
2023-04-14T17:55:07.156Z,19.99
2023-04-14T17:57:35.000Z,20.16
2023-04-14T18:00:05.846Z,19.56
2023-04-14T18:02:41.317Z,19.96
2023-04-14T18:05:10.916Z,19.86
2023-04-14T18:07:39.039Z,19.99
2023-04-14T18:10:08.240Z,19.92
2023-04-14T18:12:36.536Z,19.94
2023-04-14T18:15:07.099Z,20.09
2023-04-14T18:17:36.538Z,19.94
2023-04-14T18:20:04.781Z,20.30
2023-04-14T18:22:32.622Z,20.68
2023-04-14T18:25:00.602Z,20.47
2023-04-14T18:29:59.485Z,20.48
2023-04-14T18:32:30.103Z,20.70
2023-04-14T18:34:58.215Z,20.44
2023-04-14T18:37:26.242Z,20.73
2023-04-14T18:39:54.542Z,20.33
2023-04-14T18:42:22.733Z,20.79
2023-04-14T18:44:50.577Z,21.16
2023-04-14T18:47:22.344Z,21.39
2023-04-14T18:49:51.785Z,21.68
2023-04-14T18:52:19.939Z,21.63
2023-04-14T18:54:48.231Z,21.60
2023-04-14T18:57:16.303Z,22.32
2023-04-14T18:59:44.169Z,22.26
2023-04-14T19:02:13.671Z,22.73
2023-04-14T19:04:42.013Z,22.66
2023-04-14T19:07:11.300Z,22.87
2023-04-14T19:09:39.204Z,23.05
2023-04-14T19:12:15.577Z,23.60
2023-04-14T19:14:53.297Z,23.77
2023-04-14T19:17:21.203Z,23.45
2023-04-14T19:19:49.258Z,24.05
2023-04-14T19:22:18.644Z,24.08
2023-04-14T19:24:46.739Z,24.27
2023-04-14T19:27:14.770Z,23.93
2023-04-14T19:29:42.848Z,24.63
2023-04-14T19:32:10.743Z,24.80
2023-04-14T19:34:38.697Z,24.51
2023-04-14T19:37:06.587Z,25.10
2023-04-14T19:39:35.862Z,24.70
2023-04-14T19:42:04.060Z,24.96
2023-04-14T19:44:32.327Z,24.91
2023-04-14T19:47:00.376Z,24.98
2023-04-14T19:49:28.324Z,25.30
2023-04-14T19:51:56.289Z,25.30
2023-04-14T19:54:24.508Z,25.57
2023-04-14T19:56:54.214Z,25.35
2023-04-14T19:59:22.670Z,25.77
2023-04-14T20:01:51.479Z,25.64
2023-04-14T20:04:20.695Z,25.49
2023-04-14T20:06:49.608Z,25.63
2023-04-14T20:09:18.402Z,25.77
2023-04-14T20:11:50.197Z,26.13
2023-04-14T20:14:19.417Z,26.26
2023-04-14T20:16:47.254Z,25.89
2023-04-14T20:19:15.228Z,26.31
2023-04-14T20:21:43.671Z,26.13
2023-04-14T20:24:11.896Z,26.07
2023-04-14T20:26:44.162Z,26.42
2023-04-14T20:29:12.792Z,26.65
2023-04-14T20:31:44.167Z,26.39
2023-04-14T20:34:12.150Z,26.89
2023-04-14T20:36:40.044Z,26.48
2023-04-14T20:39:08.460Z,26.88
2023-04-14T20:41:36.583Z,26.79
2023-04-14T20:44:04.587Z,26.99
2023-04-14T20:46:35.333Z,27.11
2023-04-14T20:49:04.929Z,26.73
2023-04-14T20:51:33.240Z,27.17
2023-04-14T20:54:01.316Z,26.82
2023-04-14T20:56:30.679Z,27.16
2023-04-14T20:58:59.786Z,27.12
2023-04-14T21:01:27.999Z,26.85
2023-04-14T21:03:56.107Z,26.99
2023-04-14T21:06:25.831Z,27.00
2023-04-14T21:08:53.790Z,27.29
2023-04-14T21:11:21.644Z,27.19
2023-04-14T21:15:40.274Z,27.40
2023-04-14T21:16:37.460Z,27.45
2023-04-14T21:19:06.173Z,27.56
2023-04-14T21:21:35.705Z,27.84
2023-04-14T21:24:03.672Z,27.62
2023-04-14T21:26:31.801Z,27.73
2023-04-14T21:28:59.998Z,27.32
2023-04-14T21:31:28.458Z,27.41
2023-04-14T21:33:56.836Z,27.80
2023-04-14T21:36:25.210Z,27.79
2023-04-14T21:38:54.574Z,27.42
2023-04-14T21:41:22.429Z,27.51
2023-04-14T21:43:50.308Z,27.54
2023-04-14T21:46:18.364Z,27.50
2023-04-14T21:48:46.176Z,28.10
2023-04-14T21:51:14.350Z,27.76
2023-04-14T21:53:42.321Z,27.95
2023-04-14T21:56:12.945Z,27.77
2023-04-14T21:58:40.844Z,27.83
2023-04-14T22:01:09.930Z,27.63
2023-04-14T22:03:40.493Z,28.11
2023-04-14T22:06:29.788Z,28.05
2023-04-14T22:08:58.165Z,27.63
2023-04-14T22:11:28.712Z,28.26
2023-04-14T22:13:56.676Z,27.84
2023-04-14T22:16:25.470Z,27.80
2023-04-14T22:18:54.216Z,27.99
2023-04-14T22:21:22.250Z,27.99
2023-04-14T22:23:50.355Z,28.37
2023-04-14T22:26:18.253Z,28.19
2023-04-14T22:28:47.729Z,27.98
2023-04-14T22:31:15.562Z,28.47
2023-04-14T22:33:44.284Z,28.62
2023-04-14T22:36:12.591Z,28.63
2023-04-14T22:38:41.969Z,28.71
2023-04-14T22:41:09.888Z,28.70
2023-04-14T22:43:37.689Z,28.26
2023-04-14T22:46:06.975Z,28.89
2023-04-14T22:48:34.968Z,28.18
2023-04-14T22:51:02.883Z,28.52
2023-04-14T22:53:30.850Z,28.61
2023-04-14T22:55:59.118Z,28.52
2023-04-14T22:58:27.253Z,28.87
2023-04-14T23:00:55.078Z,28.83
2023-04-14T23:03:24.512Z,28.81
2023-04-14T23:05:52.972Z,29.27
2023-04-14T23:08:20.765Z,29.21
2023-04-14T23:10:48.541Z,29.04
2023-04-14T23:13:16.398Z,28.82
2023-04-14T23:15:44.279Z,29.56
2023-04-14T23:18:12.235Z,29.31
2023-04-14T23:20:41.429Z,29.37
2023-04-14T23:23:12.182Z,29.24
2023-04-14T23:25:40.209Z,29.15
2023-04-14T23:28:08.300Z,29.44
2023-04-14T23:30:36.829Z,29.90
2023-04-14T23:33:04.728Z,29.26
2023-04-14T23:35:32.680Z,29.29
2023-04-14T23:38:02.485Z,29.51
2023-04-14T23:40:30.613Z,29.74
2023-04-14T23:42:59.163Z,30.19
2023-04-14T23:45:27.303Z,30.22
2023-04-14T23:47:55.295Z,30.08
2023-04-14T23:50:23.453Z,29.76
2023-04-14T23:53:12.887Z,30.16
2023-04-14T23:55:40.982Z,30.08
2023-04-14T23:58:08.825Z,29.76
